Time;durP1;ratioP1;P1;durP2;ratioP2;P2;SDS_P1;SDS_P2;PMS_P1;PMS_P2;Temp;Humidity;BMP_temperature;BMP_pressure;BME280_temperature;BME280_humidity;BME280_pressure;Samples;Min_cycle;Max_cycle;Signal;HPM_P1;HPM_P2
2021/01/18 00:02:01;;;;;;;17.67;3.10;;;;;;;8.09;64.70;100327.03;4993935;28;20060;-78
2021/01/18 00:04:28;;;;;;;16.50;3.78;;;;;;;8.37;63.95;100321.31;5039151;28;20098;-77
2021/01/18 00:06:56;;;;;;;15.25;2.92;;;;;;;7.71;65.97;100305.72;5033281;28;20131;-77
2021/01/18 00:09:23;;;;;;;15.40;2.78;;;;;;;8.28;64.23;100321.19;5035278;28;20454;-77
2021/01/18 00:11:50;;;;;;;17.17;3.30;;;;;;;8.45;63.67;100305.78;5015586;28;20072;-82
2021/01/18 00:14:17;;;;;;;12.52;2.75;;;;;;;8.22;64.64;100315.91;5039988;28;20052;-79
2021/01/18 00:16:46;;;;;;;19.00;3.25;;;;;;;8.54;63.76;100316.28;5017498;28;20052;-80
2021/01/18 00:19:13;;;;;;;22.63;3.85;;;;;;;8.69;63.05;100314.72;5019611;28;20044;-78
2021/01/18 00:21:49;;;;;;;12.85;3.28;;;;;;;8.26;64.36;100321.16;5020289;28;20044;-78
2021/01/18 00:24:16;;;;;;;13.60;3.97;;;;;;;8.34;63.51;100300.47;5017698;28;20466;-78
2021/01/18 00:26:46;;;;;;;22.05;3.38;;;;;;;8.69;63.08;100293.88;5032156;28;20056;-80
2021/01/18 00:29:15;;;;;;;13.18;3.25;;;;;;;8.94;62.48;100278.47;5033821;28;20145;-79
2021/01/18 00:31:43;;;;;;;13.98;2.90;;;;;;;8.40;63.74;100279.69;5015082;28;20544;-80
2021/01/18 00:34:10;;;;;;;18.70;2.92;;;;;;;8.44;64.04;100281.47;5037016;28;20047;-80
2021/01/18 00:36:45;;;;;;;16.95;2.83;;;;;;;8.22;64.28;100272.53;5034830;28;20044;-80
2021/01/18 00:39:11;;;;;;;16.70;2.80;;;;;;;8.46;63.67;100271.06;5018368;28;20055;-80
2021/01/18 00:41:42;;;;;;;16.13;3.65;;;;;;;8.50;64.00;100265.03;5000647;28;20515;-79
2021/01/18 00:44:08;;;;;;;19.52;3.10;;;;;;;8.48;64.03;100254.63;5035419;28;20042;-79
2021/01/18 00:46:40;;;;;;;20.90;2.92;;;;;;;8.31;64.27;100253.56;5035993;28;20487;-80
2021/01/18 00:49:07;;;;;;;17.83;4.10;;;;;;;8.62;63.01;100247.81;5022517;28;20079;-79
2021/01/18 00:51:38;;;;;;;21.77;3.13;;;;;;;8.07;65.04;100248.06;5018466;28;20130;-79
2021/01/18 00:54:05;;;;;;;16.58;3.55;;;;;;;8.05;65.08;100239.38;5043900;28;20049;-78
2021/01/18 00:56:32;;;;;;;12.82;3.58;;;;;;;7.97;65.64;100238.41;5025400;28;20060;-78
2021/01/18 00:58:58;;;;;;;14.85;2.92;;;;;;;7.70;66.85;100237.22;5014453;28;20088;-78
2021/01/18 01:01:26;;;;;;;18.67;2.95;;;;;;;7.98;66.29;100237.53;5028564;28;20128;-78
2021/01/18 01:03:53;;;;;;;17.23;2.88;;;;;;;8.12;65.49;100220.34;5036073;28;20157;-79
2021/01/18 01:06:19;;;;;;;14.00;3.50;;;;;;;8.16;65.08;100227.34;5038013;28;20056;-78
2021/01/18 01:08:46;;;;;;;16.75;3.03;;;;;;;8.04;65.54;100209.00;5032398;28;20125;-78
2021/01/18 01:11:13;;;;;;;21.35;3.38;;;;;;;8.10;65.40;100228.16;5020252;28;20064;-79
2021/01/18 01:13:39;;;;;;;16.95;3.97;;;;;;;8.19;65.58;100216.97;5038641;28;20060;-80
2021/01/18 01:16:08;;;;;;;15.13;3.20;;;;;;;7.99;65.75;100203.75;5027347;28;20137;-80
2021/01/18 01:18:34;;;;;;;15.77;3.50;;;;;;;7.97;65.93;100199.38;5036716;28;20053;-82
2021/01/18 01:21:01;;;;;;;12.45;3.15;;;;;;;8.05;66.06;100195.16;5039235;28;20050;-79
2021/01/18 01:23:28;;;;;;;10.90;3.47;;;;;;;8.15;65.70;100186.56;5032457;28;20053;-78
2021/01/18 01:25:55;;;;;;;16.10;2.80;;;;;;;8.19;65.66;100178.81;5029643;28;20443;-78
2021/01/18 01:28:25;;;;;;;13.07;3.38;;;;;;;8.02;66.16;100179.47;5043605;28;20402;-79
2021/01/18 01:30:54;;;;;;;11.65;3.05;;;;;;;7.87;65.97;100178.47;5050745;28;20132;-78
2021/01/18 01:33:21;;;;;;;17.30;3.45;;;;;;;8.03;65.95;100182.09;5041819;28;20153;-81
2021/01/18 01:35:49;;;;;;;7.65;2.45;;;;;;;8.28;65.29;100172.81;5051697;28;20488;-80
2021/01/18 01:38:18;;;;;;;15.05;3.25;;;;;;;7.99;65.79;100188.13;5041049;28;20049;-80
2021/01/18 01:40:44;;;;;;;14.35;3.60;;;;;;;8.17;65.69;100162.28;5036864;28;20078;-79
2021/01/18 01:43:11;;;;;;;11.80;2.83;;;;;;;8.45;64.63;100168.66;5044371;28;20087;-80
2021/01/18 01:45:38;;;;;;;13.65;2.90;;;;;;;8.28;65.08;100165.88;5036505;28;20162;-79
2021/01/18 01:48:05;;;;;;;25.60;3.67;;;;;;;7.92;66.71;100162.91;5020000;28;20202;-79
2021/01/18 01:50:37;;;;;;;10.85;3.10;;;;;;;8.16;65.95;100159.66;5057821;28;20178;-79
2021/01/18 01:53:11;;;;;;;18.20;3.78;;;;;;;8.10;65.76;100154.44;5029528;28;20048;-79
2021/01/18 01:55:38;;;;;;;;;;;;;;;7.98;65.84;100159.50;5055025;28;20117;-78
2021/01/18 01:58:06;;;;;;;15.75;2.70;;;;;;;7.95;66.03;100141.25;5041519;28;20012;-78
2021/01/18 02:00:38;;;;;;;12.30;3.63;;;;;;;7.61;67.04;100148.69;5034280;28;20077;-80
2021/01/18 02:03:10;;;;;;;14.82;3.40;;;;;;;7.79;66.26;100153.22;5028940;28;20084;-78
2021/01/18 02:05:37;;;;;;;;;;;;;;;7.86;66.34;100145.50;5037562;28;20040;-78
2021/01/18 02:08:09;;;;;;;14.50;3.35;;;;;;;7.32;67.71;100156.13;5035619;28;19921;-78
2021/01/18 02:10:37;;;;;;;13.00;3.65;;;;;;;7.55;67.31;100156.41;5030300;28;20448;-78
2021/01/18 02:13:18;;;;;;;16.70;3.33;;;;;;;7.52;66.99;100155.50;5022266;28;20072;-78
2021/01/18 02:16:04;;;;;;;12.60;3.45;;;;;;;7.80;66.71;100153.25;5034880;28;20132;-78
2021/01/18 02:18:45;;;;;;;9.50;3.13;;;;;;;7.86;65.88;100140.28;5038288;28;20518;-78
2021/01/18 02:21:30;;;;;;;10.68;3.03;;;;;;;7.93;66.05;100153.38;5033573;28;20112;-79
2021/01/18 02:24:34;;;;;;;9.68;2.60;;;;;;;7.78;66.36;100152.34;5034104;28;20057;-78
2021/01/18 02:27:20;;;;;;;9.77;3.40;;;;;;;7.60;66.51;100146.94;5033131;28;20741;-79
2021/01/18 02:30:05;;;;;;;14.45;4.60;;;;;;;7.72;66.59;100141.88;5009982;28;20056;-79
2021/01/18 02:32:34;;;;;;;17.25;3.65;;;;;;;7.35;67.38;100139.69;5037859;28;20437;-78
2021/01/18 02:35:26;;;;;;;13.77;4.00;;;;;;;7.56;66.96;100139.97;5034457;28;20053;-78
2021/01/18 02:38:27;;;;;;;10.90;3.33;;;;;;;7.48;66.95;100139.03;5025584;28;20722;-78
2021/01/18 02:41:09;;;;;;;11.90;2.90;;;;;;;7.68;66.54;100134.91;5030429;28;20062;-79
2021/01/18 02:43:44;;;;;;;14.05;3.03;;;;;;;7.54;66.79;100133.00;5026861;28;20700;-79
2021/01/18 02:46:18;;;;;;;11.88;3.25;;;;;;;7.73;66.01;100125.41;5034646;28;20195;-79
2021/01/18 02:48:46;;;;;;;13.93;2.35;;;;;;;7.59;66.30;100129.59;5034024;28;20055;-79
2021/01/18 02:51:17;;;;;;;8.63;2.15;;;;;;;7.73;66.52;100129.75;5031618;28;20160;-79
2021/01/18 02:54:13;;;;;;;10.88;2.65;;;;;;;7.96;65.41;100127.41;5015239;28;20139;-80
2021/01/18 02:56:43;;;;;;;6.70;2.00;;;;;;;7.30;67.55;100121.44;4939348;28;20536;-79
2021/01/18 02:59:12;;;;;;;10.98;2.78;;;;;;;7.55;66.62;100127.81;4960767;28;20061;-79
2021/01/18 03:02:00;;;;;;;8.40;2.03;;;;;;;7.65;66.13;100124.47;4940026;28;20062;-79
2021/01/18 03:05:06;;;;;;;10.95;2.20;;;;;;;7.60;66.54;100115.75;4945165;28;20542;-79
2021/01/18 03:07:58;;;;;;;7.53;2.50;;;;;;;7.72;65.51;100109.81;4956579;28;20050;-79
2021/01/18 03:10:32;;;;;;;16.27;2.50;;;;;;;7.32;66.76;100121.47;4960459;28;20063;-79
2021/01/18 03:13:03;;;;;;;6.10;2.22;;;;;;;7.67;65.89;100117.56;4939667;28;20047;-79
2021/01/18 03:15:36;;;;;;;11.40;2.80;;;;;;;7.26;67.25;100126.59;4924125;28;20363;-79
2021/01/18 03:18:04;;;;;;;13.43;2.22;;;;;;;7.53;66.33;100124.31;4946725;28;20053;-79
2021/01/18 03:20:32;;;;;;;13.23;2.83;;;;;;;7.29;67.21;100135.28;4978927;28;20123;-79
2021/01/18 03:23:08;;;;;;;10.98;2.35;;;;;;;7.35;66.21;100127.56;4972049;28;20452;-79
2021/01/18 03:25:55;;;;;;;12.50;2.67;;;;;;;7.32;66.55;100118.88;4951162;28;20101;-79
2021/01/18 03:28:23;;;;;;;11.82;2.90;;;;;;;7.30;66.34;100123.16;4964290;28;20042;-79
2021/01/18 03:30:50;;;;;;;9.77;3.15;;;;;;;7.54;66.02;100122.59;4978716;28;20087;-79
2021/01/18 03:33:24;;;;;;;14.68;3.15;;;;;;;7.60;65.30;100113.16;5014792;28;20370;-79
2021/01/18 03:35:54;;;;;;;12.02;2.80;;;;;;;7.57;65.85;100109.66;5038247;28;20107;-79
2021/01/18 03:38:21;;;;;;;11.32;2.42;;;;;;;7.51;66.04;100102.66;5035055;28;20049;-79
2021/01/18 03:40:49;;;;;;;19.23;3.05;;;;;;;7.72;65.29;100102.03;5029265;28;20116;-79
2021/01/18 03:43:18;;;;;;;14.48;3.35;;;;;;;7.33;66.19;100089.44;5034087;28;20075;-79
2021/01/18 03:45:45;;;;;;;10.35;2.50;;;;;;;7.58;65.74;100093.19;5039631;28;20049;-79
2021/01/18 03:48:13;;;;;;;14.85;2.53;;;;;;;7.51;66.01;100091.38;5034981;28;20056;-79
2021/01/18 03:50:40;;;;;;;13.77;2.13;;;;;;;7.80;65.00;100089.97;5038497;28;20089;-79
2021/01/18 03:53:10;;;;;;;15.32;2.38;;;;;;;7.54;65.55;100096.59;5037135;28;20050;-79
2021/01/18 03:55:38;;;;;;;10.10;2.42;;;;;;;7.36;66.14;100099.88;5028343;28;20060;-79
2021/01/18 03:58:05;;;;;;;11.15;4.15;;;;;;;7.22;65.89;100091.03;5036880;28;20148;-77
2021/01/18 04:00:34;;;;;;;13.98;3.13;;;;;;;7.52;65.60;100100.91;5031413;28;20057;-78
2021/01/18 04:03:01;;;;;;;11.23;2.67;;;;;;;7.49;65.10;100108.66;5033042;28;20059;-79
2021/01/18 04:05:28;;;;;;;5.95;2.40;;;;;;;7.56;64.98;100097.50;5015800;28;20050;-78
2021/01/18 04:07:55;;;;;;;15.93;3.00;;;;;;;7.36;65.80;100092.06;5035453;28;20057;-78
2021/01/18 04:10:26;;;;;;;12.85;2.83;;;;;;;7.37;65.99;100080.81;5032209;28;20046;-78
2021/01/18 04:12:54;;;;;;;11.63;2.97;;;;;;;7.43;65.92;100089.53;5016857;28;20056;-78
2021/01/18 04:15:22;;;;;;;14.38;4.07;;;;;;;7.59;64.77;100074.13;5031917;28;20053;-79
2021/01/18 04:17:51;;;;;;;13.98;3.45;;;;;;;7.41;65.57;100067.00;5035443;28;20069;-78
2021/01/18 04:20:19;;;;;;;12.07;2.80;;;;;;;7.75;64.33;100069.09;5020620;28;20053;-78
2021/01/18 04:22:53;;;;;;;10.52;2.67;;;;;;;7.42;65.31;100054.03;5030891;28;20384;-78
2021/01/18 04:25:22;;;;;;;14.55;2.40;;;;;;;7.33;65.54;100061.72;5032574;28;20044;-78
2021/01/18 04:27:51;;;;;;;7.93;2.05;;;;;;;7.34;66.01;100063.44;5037517;28;20504;-78
2021/01/18 04:30:22;;;;;;;8.85;2.30;;;;;;;7.14;66.30;100054.56;5032087;28;20063;-78
2021/01/18 04:33:00;;;;;;;8.32;2.33;;;;;;;7.04;66.77;100055.31;5029785;28;20049;-78
2021/01/18 04:35:31;;;;;;;10.68;2.90;;;;;;;7.55;64.92;100065.41;5037669;28;20055;-78
2021/01/18 04:37:58;;;;;;;10.93;3.42;;;;;;;7.42;65.84;100073.94;5031612;28;20056;-78
2021/01/18 04:40:27;;;;;;;14.70;2.30;;;;;;;7.47;65.56;100081.81;5033539;28;20145;-79
2021/01/18 04:42:54;;;;;;;12.35;2.40;;;;;;;7.31;65.80;100073.81;5035566;28;20041;-78
2021/01/18 04:45:22;;;;;;;8.32;2.00;;;;;;;7.64;64.73;100069.84;5032354;28;20164;-78
2021/01/18 04:47:51;;;;;;;5.50;1.60;;;;;;;7.55;64.86;100065.41;5033936;28;20191;-78
2021/01/18 04:50:21;;;;;;;8.65;2.13;;;;;;;8.03;63.65;100067.63;5039328;28;20037;-78
2021/01/18 04:52:50;;;;;;;8.32;1.73;;;;;;;7.63;65.04;100060.28;5033153;28;20463;-78
2021/01/18 04:55:52;;;;;;;15.95;2.47;;;;;;;7.62;65.05;100066.38;5038656;28;20496;-78
2021/01/18 04:58:19;;;;;;;8.43;1.60;;;;;;;7.70;64.66;100064.72;5027033;28;20564;-78
2021/01/18 05:00:48;;;;;;;8.35;3.58;;;;;;;7.70;65.19;100051.72;5044358;28;20072;-78
2021/01/18 05:03:17;;;;;;;12.35;2.20;;;;;;;7.92;63.74;100057.97;5035857;28;20413;-78
2021/01/18 05:06:02;;;;;;;9.98;2.53;;;;;;;7.61;65.08;100054.22;5035508;28;20071;-79
2021/01/18 05:08:48;;;;;;;5.25;2.30;;;;;;;7.27;66.23;100040.88;5037447;28;20045;-79
2021/01/18 05:11:15;;;;;;;11.27;2.40;;;;;;;7.30;66.14;100053.00;5034097;28;20128;-79
2021/01/18 05:13:45;;;;;;;9.82;2.22;;;;;;;7.31;66.38;100034.84;5036013;28;20455;-79
2021/01/18 05:16:12;;;;;;;12.38;2.40;;;;;;;7.31;66.65;100047.84;5024689;28;20115;-80
2021/01/18 05:18:41;;;;;;;4.55;1.55;;;;;;;7.24;66.82;100037.38;5034748;28;20049;-79
2021/01/18 05:21:10;;;;;;;12.70;2.15;;;;;;;7.13;67.30;100037.22;5022636;28;20041;-79
2021/01/18 05:23:43;;;;;;;10.02;2.08;;;;;;;7.38;66.22;100046.19;5037623;28;20053;-79
2021/01/18 05:26:21;;;;;;;5.60;2.17;;;;;;;7.42;66.37;100058.34;5030661;28;20053;-78
2021/01/18 05:28:49;;;;;;;11.00;2.25;;;;;;;7.24;66.70;100048.59;5033719;28;20057;-79
2021/01/18 05:31:27;;;;;;;12.88;1.75;;;;;;;7.39;66.08;100056.56;5020013;28;20049;-79
2021/01/18 05:33:55;;;;;;;7.53;1.67;;;;;;;7.67;65.36;100052.56;5035167;28;20056;-77
2021/01/18 05:36:42;;;;;;;12.48;2.33;;;;;;;7.47;65.89;100054.09;5037324;28;20059;-78
2021/01/18 05:39:14;;;;;;;9.77;2.47;;;;;;;7.55;65.70;100056.75;5029157;28;20160;-80
2021/01/18 05:41:46;;;;;;;10.65;2.05;;;;;;;7.53;67.07;100059.31;5018886;28;20081;-80
2021/01/18 05:44:14;;;;;;;5.35;1.90;;;;;;;7.25;67.63;100039.97;5022755;28;20045;-78
2021/01/18 05:46:44;;;;;;;12.05;2.22;;;;;;;7.28;67.67;100044.34;5033672;28;20064;-79
2021/01/18 05:49:18;;;;;;;6.88;2.03;;;;;;;7.46;67.32;100044.53;5009495;28;20049;-80
2021/01/18 05:51:54;;;;;;;7.30;1.95;;;;;;;7.02;69.15;100046.63;5032547;28;20076;-79
2021/01/18 05:54:26;;;;;;;5.07;1.75;;;;;;;7.20;69.00;100035.56;5039793;28;20099;-78
2021/01/18 05:56:54;;;;;;;5.55;1.70;;;;;;;7.45;68.79;100048.84;5034309;28;20136;-78
2021/01/18 05:59:21;;;;;;;9.75;2.42;;;;;;;7.40;68.88;100047.06;5039612;28;20488;-78
2021/01/18 06:01:50;;;;;;;5.63;1.85;;;;;;;7.56;68.06;100038.56;5038703;28;20049;-79
2021/01/18 06:04:19;;;;;;;9.73;2.00;;;;;;;7.36;68.63;100032.28;5038363;28;20073;-79
2021/01/18 06:07:00;;;;;;;2.50;1.45;;;;;;;7.45;68.24;100032.38;5024738;28;20073;-79
2021/01/18 06:09:46;;;;;;;6.20;1.55;;;;;;;7.22;69.02;100033.88;5039742;28;20121;-79
2021/01/18 06:12:26;;;;;;;6.97;1.70;;;;;;;7.56;67.98;100027.31;5037679;28;20140;-79
2021/01/18 06:15:06;;;;;;;5.22;1.40;;;;;;;7.22;68.62;100034.75;5034706;28;20035;-79
2021/01/18 06:17:33;;;;;;;4.70;1.70;;;;;;;7.35;68.20;100031.41;5018361;28;20076;-79
2021/01/18 06:20:00;;;;;;;6.22;1.75;;;;;;;7.60;68.10;100035.16;5029579;28;20393;-78
2021/01/18 06:22:29;;;;;;;7.88;2.03;;;;;;;7.47;68.49;100037.59;5038234;28;20041;-80
2021/01/18 06:24:56;;;;;;;3.95;1.88;;;;;;;7.62;68.41;100040.38;5025705;28;20136;-80
2021/01/18 06:27:33;;;;;;;7.75;1.75;;;;;;;7.48;68.77;100040.22;5022900;28;20163;-79
2021/01/18 06:29:59;;;;;;;10.57;2.00;;;;;;;7.83;68.58;100028.44;5032386;28;20095;-79
2021/01/18 06:32:30;;;;;;;7.50;2.05;;;;;;;7.79;68.55;100029.25;5026159;28;20554;-79
2021/01/18 06:35:02;;;;;;;12.07;2.73;;;;;;;7.68;68.58;100035.22;5030876;28;20766;-79
2021/01/18 06:37:33;;;;;;;4.80;2.20;;;;;;;7.65;68.57;100041.25;5039254;28;20339;-79
2021/01/18 06:40:01;;;;;;;8.15;2.13;;;;;;;7.84;68.54;100047.50;5028128;28;20045;-80
2021/01/18 06:42:28;;;;;;;7.43;2.50;;;;;;;8.13;67.57;100042.56;5034014;28;20048;-80
2021/01/18 06:44:55;;;;;;;15.13;2.50;;;;;;;8.00;68.18;100038.13;5036181;28;20053;-81
2021/01/18 06:47:27;;;;;;;10.60;3.05;;;;;;;7.89;68.74;100035.41;5037326;28;20045;-81
2021/01/18 06:50:01;;;;;;;7.40;1.90;;;;;;;7.82;69.25;100044.00;5034387;28;20037;-82
2021/01/18 06:52:29;;;;;;;5.80;2.08;;;;;;;7.48;69.31;100022.03;5034706;28;20522;-82
2021/01/18 06:55:10;;;;;;;2.40;1.33;;;;;;;7.64;68.71;100020.44;5037786;28;20559;-82
2021/01/18 06:57:45;;;;;;;4.20;1.38;;;;;;;7.58;68.32;100026.44;5030901;28;20191;-82
2021/01/18 07:00:14;;;;;;;5.20;1.40;;;;;;;7.50;68.84;100024.63;5037358;28;20053;-83
2021/01/18 07:02:54;;;;;;;3.50;1.30;;;;;;;7.23;68.49;100033.03;5019748;28;20426;-83
2021/01/18 07:05:32;;;;;;;3.15;1.20;;;;;;;7.31;68.63;100024.44;5036621;28;20041;-81
2021/01/18 07:08:12;;;;;;;5.57;1.20;;;;;;;7.37;68.88;100023.66;5019805;28;20050;-81
2021/01/18 07:10:45;;;;;;;7.20;1.20;;;;;;;7.10;69.18;100016.41;5040001;28;20053;-81
2021/01/18 07:13:12;;;;;;;18.58;1.20;;;;;;;7.16;68.64;100023.41;5012676;28;20463;-81
2021/01/18 07:15:45;;;;;;;4.13;0.80;;;;;;;7.03;68.38;100018.91;5017847;28;20043;-82
2021/01/18 07:18:13;;;;;;;1.85;0.73;;;;;;;7.10;68.72;100013.81;5038859;28;20041;-82
2021/01/18 07:20:46;;;;;;;2.38;0.98;;;;;;;7.28;67.85;100019.22;5037457;28;20048;-80
2021/01/18 07:23:13;;;;;;;2.97;0.95;;;;;;;6.90;68.83;100012.72;5038072;28;20049;-81
2021/01/18 07:25:46;;;;;;;3.47;1.15;;;;;;;6.98;68.85;100021.47;5037860;28;20076;-81
2021/01/18 07:28:17;;;;;;;2.35;1.00;;;;;;;6.94;68.45;100012.78;5018246;28;20103;-81
2021/01/18 07:30:45;;;;;;;4.72;1.50;;;;;;;6.88;68.58;100012.69;5053876;28;20132;-81
2021/01/18 07:33:13;;;;;;;3.60;1.33;;;;;;;6.99;68.44;100013.69;5023148;28;20171;-81
2021/01/18 07:35:42;;;;;;;4.43;1.50;;;;;;;6.86;69.28;100019.56;5035823;28;20091;-81
2021/01/18 07:38:18;;;;;;;4.53;1.50;;;;;;;7.24;68.04;100011.38;5035634;28;20487;-82
2021/01/18 07:41:06;;;;;;;7.20;2.05;;;;;;;7.43;68.07;100008.97;5035026;28;20148;-81
2021/01/18 07:43:37;;;;;;;7.00;2.17;;;;;;;7.48;67.50;100010.78;5037155;28;20049;-81
2021/01/18 07:46:25;;;;;;;8.75;1.98;;;;;;;7.06;69.21;100003.34;5035221;28;20048;-80
2021/01/18 07:49:14;;;;;;;4.75;1.90;;;;;;;7.26;68.40;100004.47;5022909;28;20064;-81
2021/01/18 07:51:41;;;;;;;5.22;1.98;;;;;;;7.26;68.42;100001.84;4982882;28;20054;-80
2021/01/18 07:54:34;;;;;;;6.15;1.88;;;;;;;7.33;67.99;99998.47;4950375;28;20484;-80
2021/01/18 07:57:35;;;;;;;;;;;;;;;7.09;68.50;100003.41;4969835;28;20497;-81
2021/01/18 08:00:21;;;;;;;8.88;1.90;;;;;;;6.97;69.53;99996.34;4898612;29;19946;-81
2021/01/18 08:02:50;;;;;;;5.85;1.90;;;;;;;7.55;67.41;100007.34;4890735;29;20452;-81
2021/01/18 08:05:46;;;;;;;5.35;1.73;;;;;;;7.44;67.67;100002.03;4928044;29;20064;-81
2021/01/18 08:08:26;;;;;;;9.00;2.10;;;;;;;7.04;68.85;100010.28;4892443;29;20147;-80
2021/01/18 08:11:00;;;;;;;9.20;1.70;;;;;;;7.52;67.34;100013.41;4871516;29;20049;-80
2021/01/18 08:13:51;;;;;;;5.85;1.20;;;;;;;7.54;67.15;99990.88;4888425;29;20047;-80
2021/01/18 08:16:28;;;;;;;2.83;1.30;;;;;;;7.57;67.09;99998.72;4891383;29;20052;-81
2021/01/18 08:18:58;;;;;;;3.47;1.35;;;;;;;7.12;67.54;99978.31;4868503;29;20056;-81
2021/01/18 08:21:33;;;;;;;4.05;1.40;;;;;;;7.29;67.48;99994.97;4886662;29;20502;-80
2021/01/18 08:24:27;;;;;;;3.47;1.30;;;;;;;7.52;66.91;99995.22;4883897;29;20059;-81
2021/01/18 08:27:08;;;;;;;1.58;1.15;;;;;;;7.25;67.06;99993.19;4892728;29;20062;-80
2021/01/18 08:29:35;;;;;;;1.00;1.00;;;;;;;7.31;66.63;99994.97;4895366;29;20048;-81
2021/01/18 08:32:23;;;;;;;2.83;1.10;;;;;;;7.60;65.72;99985.75;4891278;29;20075;-79
2021/01/18 08:34:51;;;;;;;1.83;0.77;;;;;;;7.30;66.81;99990.63;4939888;28;20390;-80
2021/01/18 08:37:18;;;;;;;4.85;1.00;;;;;;;7.30;66.49;99986.31;4974034;28;20054;-80
2021/01/18 08:39:52;;;;;;;2.67;0.90;;;;;;;7.43;66.52;99989.94;4941769;28;20054;-79
2021/01/18 08:42:44;;;;;;;1.70;0.80;;;;;;;7.33;67.00;99988.09;4951098;28;20089;-79
2021/01/18 08:45:20;;;;;;;7.32;0.90;;;;;;;7.41;66.58;99989.91;5016333;28;20103;-79
2021/01/18 08:47:55;;;;;;;1.33;0.85;;;;;;;7.49;66.40;99982.16;5015532;28;20049;-79
2021/01/18 08:50:26;;;;;;;6.55;1.30;;;;;;;7.48;66.46;99985.66;5033198;28;20051;-80
2021/01/18 08:52:56;;;;;;;4.18;1.30;;;;;;;7.49;66.77;99994.28;5014973;28;20049;-80
2021/01/18 08:55:31;;;;;;;3.60;1.33;;;;;;;7.45;67.13;99998.59;5026962;28;20124;-80
2021/01/18 08:57:59;;;;;;;3.97;1.40;;;;;;;7.49;67.12;99995.16;5013055;28;20049;-79
2021/01/18 09:00:46;;;;;;;5.53;1.40;;;;;;;7.65;66.25;99997.06;5020164;28;20104;-81
2021/01/18 09:03:21;;;;;;;5.68;1.75;;;;;;;7.95;65.26;99996.47;5031448;28;20041;-78
2021/01/18 09:05:52;;;;;;;4.20;1.85;;;;;;;7.58;66.58;99994.41;5030412;28;20081;-82
2021/01/18 09:08:21;;;;;;;2.17;1.10;;;;;;;8.01;65.30;99982.63;5035573;28;20685;-79
2021/01/18 09:10:56;;;;;;;3.90;1.58;;;;;;;8.09;64.74;99980.94;5028068;28;20041;-79
2021/01/18 09:13:25;;;;;;;9.18;1.77;;;;;;;7.85;66.01;99998.13;5028513;28;20064;-80
2021/01/18 09:15:53;;;;;;;2.35;1.27;;;;;;;8.13;64.94;99996.59;5031843;28;20045;-78
2021/01/18 09:18:23;;;;;;;4.35;1.23;;;;;;;8.19;64.83;99987.97;5019196;28;20042;-78
2021/01/18 09:20:50;;;;;;;6.15;1.52;;;;;;;8.18;64.56;99992.28;4986920;28;20054;-79
2021/01/18 09:23:17;;;;;;;7.22;1.30;;;;;;;7.92;64.99;99985.13;4998316;28;20469;-80
2021/01/18 09:26:11;;;;;;;5.70;1.30;;;;;;;7.91;65.32;99986.91;5015011;28;20090;-78
2021/01/18 09:28:50;;;;;;;2.95;1.40;;;;;;;7.82;65.34;99995.47;5002712;28;20050;-78
2021/01/18 09:31:17;;;;;;;3.45;1.30;;;;;;;7.91;64.91;99986.91;5003738;28;20041;-78
2021/01/18 09:33:45;;;;;;;5.95;1.75;;;;;;;7.81;65.40;99990.28;5016459;28;20143;-79
2021/01/18 09:36:23;;;;;;;2.78;1.15;;;;;;;8.16;64.51;100003.53;4989144;28;20049;-79
2021/01/18 09:39:01;;;;;;;1.98;0.90;;;;;;;7.92;64.94;99999.00;4984633;28;20132;-80
2021/01/18 09:41:43;;;;;;;3.00;1.08;;;;;;;8.20;64.24;100003.56;5003245;28;20166;-78
2021/01/18 09:44:13;;;;;;;2.20;1.33;;;;;;;7.84;65.00;100004.16;5007563;28;20076;-81
2021/01/18 09:46:42;;;;;;;5.30;1.03;;;;;;;8.09;64.42;99997.44;5001778;28;20112;-80
2021/01/18 09:49:11;;;;;;;3.38;1.08;;;;;;;7.95;65.47;99998.19;4991522;28;20069;-81
2021/01/18 09:51:42;;;;;;;6.70;1.33;;;;;;;7.95;64.36;99998.19;4999879;28;20064;-83
2021/01/18 09:54:12;;;;;;;6.25;1.45;;;;;;;7.64;65.01;99990.09;5002535;28;20392;-78
2021/01/18 09:56:41;;;;;;;5.85;1.30;;;;;;;7.94;63.66;99986.91;5032544;28;20460;-77
2021/01/18 09:59:12;;;;;;;6.45;1.20;;;;;;;7.79;64.64;99977.25;5021342;28;20045;-79
2021/01/18 10:01:44;;;;;;;3.88;1.30;;;;;;;8.10;63.84;99978.38;5030592;28;20049;-79
2021/01/18 10:04:22;;;;;;;3.58;1.38;;;;;;;8.47;62.66;99989.03;5019230;28;20041;-79
2021/01/18 10:06:51;;;;;;;5.75;1.35;;;;;;;7.90;64.13;99985.16;5045584;28;20041;-79
2021/01/18 10:09:24;;;;;;;3.15;1.25;;;;;;;7.99;63.59;99980.00;4989645;28;20060;-77
2021/01/18 10:11:59;;;;;;;5.15;1.20;;;;;;;8.22;62.58;99978.44;5021378;28;20073;-77
2021/01/18 10:14:28;;;;;;;5.95;1.20;;;;;;;8.22;63.29;99970.63;5016520;28;20060;-77
2021/01/18 10:16:58;;;;;;;6.30;1.20;;;;;;;8.08;63.09;99968.78;5032542;28;20574;-78
2021/01/18 10:19:25;;;;;;;7.35;1.58;;;;;;;7.86;63.89;99976.41;5018521;28;20504;-79
2021/01/18 10:21:54;;;;;;;5.60;0.80;;;;;;;8.07;63.55;99973.13;5031202;28;20048;-80
2021/01/18 10:24:40;;;;;;;3.05;0.93;;;;;;;8.31;62.46;99977.66;5035373;28;20057;-77
2021/01/18 10:27:15;;;;;;;3.85;1.27;;;;;;;8.47;61.61;99968.19;5022314;28;20138;-78
2021/01/18 10:29:42;;;;;;;4.28;0.82;;;;;;;8.35;62.39;99981.13;5032740;28;20514;-78
2021/01/18 10:32:09;;;;;;;8.23;1.08;;;;;;;8.23;62.64;99971.50;5034108;28;20131;-75
2021/01/18 10:34:39;;;;;;;4.63;1.30;;;;;;;8.24;62.55;99975.84;5011942;28;20265;-76
2021/01/18 10:37:20;;;;;;;1.70;0.90;;;;;;;8.56;61.60;99973.44;5025950;28;20059;-79
2021/01/18 10:39:47;;;;;;;4.35;0.88;;;;;;;8.38;62.40;99969.03;4999744;28;20080;-79
2021/01/18 10:42:19;;;;;;;3.83;0.90;;;;;;;8.49;62.19;99963.88;5021288;28;20049;-78
2021/01/18 10:44:57;;;;;;;5.13;1.05;;;;;;;8.83;61.10;99957.06;5031617;28;20040;-78
2021/01/18 10:47:27;;;;;;;5.93;1.00;;;;;;;8.49;61.59;99961.28;5015774;28;20038;-77
2021/01/18 10:49:59;;;;;;;1.15;0.70;;;;;;;8.91;60.48;99960.59;5030483;28;21004;-77
2021/01/18 10:52:34;;;;;;;;;;;;;;;8.87;61.09;99964.94;5038552;28;20125;-78
2021/01/18 10:55:04;;;;;;;3.15;0.90;;;;;;;8.93;60.80;99966.66;5008954;28;20012;-78
2021/01/18 10:57:49;;;;;;;2.58;1.02;;;;;;;8.54;61.40;99954.34;5034582;28;20060;-78
2021/01/18 11:00:22;;;;;;;2.55;0.90;;;;;;;8.48;61.75;99963.00;5019545;28;20139;-77
2021/01/18 11:02:55;;;;;;;2.83;0.80;;;;;;;8.60;61.13;99951.75;5030898;28;20133;-78
2021/01/18 11:05:31;;;;;;;5.93;0.95;;;;;;;8.32;62.07;99955.97;5015145;28;20140;-77
2021/01/18 11:07:59;;;;;;;6.40;0.98;;;;;;;8.21;62.49;99960.19;5037701;28;20053;-77
2021/01/18 11:10:28;;;;;;;6.50;1.05;;;;;;;8.63;61.51;99957.00;5043071;28;20099;-78
2021/01/18 11:13:11;;;;;;;5.00;0.90;;;;;;;8.75;61.38;99965.72;5037021;28;20057;-77
2021/01/18 11:15:41;;;;;;;5.22;0.70;;;;;;;8.89;60.44;99951.88;5037958;28;20125;-77
2021/01/18 11:18:12;;;;;;;5.05;0.95;;;;;;;8.63;61.17;99950.03;5035987;28;20534;-75
2021/01/18 11:20:40;;;;;;;3.53;0.77;;;;;;;9.07;60.31;99947.59;5010818;28;20061;-77
2021/01/18 11:23:11;;;;;;;3.28;1.10;;;;;;;8.71;61.97;99937.06;5003464;28;20069;-77
2021/01/18 11:25:39;;;;;;;6.45;1.05;;;;;;;8.84;61.38;99940.56;5021123;28;20041;-76
2021/01/18 11:28:09;;;;;;;9.45;2.00;;;;;;;8.75;60.65;99936.22;5025547;28;20157;-77
2021/01/18 11:30:37;;;;;;;3.05;1.10;;;;;;;8.72;61.26;99933.59;5020939;28;20057;-78
2021/01/18 11:33:05;;;;;;;4.85;1.17;;;;;;;8.86;60.49;99936.25;5002783;28;20041;-77
2021/01/18 11:35:32;;;;;;;5.03;1.50;;;;;;;8.88;60.31;99934.50;5005751;28;20048;-77
2021/01/18 11:37:59;;;;;;;8.50;1.45;;;;;;;8.56;60.87;99931.78;5006237;28;20044;-80
2021/01/18 11:40:25;;;;;;;3.05;0.93;;;;;;;8.21;61.68;99923.75;5037294;28;20222;-79
2021/01/18 11:42:57;;;;;;;3.88;1.30;;;;;;;8.68;61.01;99924.88;5006958;28;21401;-78
2021/01/18 11:45:25;;;;;;;3.85;1.10;;;;;;;8.92;60.27;99924.09;5042346;28;20048;-82
2021/01/18 11:47:52;;;;;;;3.22;1.05;;;;;;;8.94;59.89;99921.50;5038684;28;20044;-77
2021/01/18 11:50:20;;;;;;;3.33;1.10;;;;;;;9.03;59.93;99914.56;5054949;28;20037;-77
2021/01/18 11:52:49;;;;;;;6.47;1.08;;;;;;;8.60;61.31;99913.56;5034545;28;20056;-78
2021/01/18 11:55:17;;;;;;;5.97;1.05;;;;;;;8.82;60.42;99918.88;4938056;28;20057;-80
2021/01/18 11:57:45;;;;;;;2.58;1.08;;;;;;;8.58;60.88;99910.13;5009365;28;20069;-78
2021/01/18 12:00:21;;;;;;;6.90;1.58;;;;;;;8.70;60.67;99917.97;5025671;28;20058;-79